Latest Weather Observations for White Cliffs AWS

IDN60801

Issued at 4:05 pm EST Sunday 31 August 2014 (issued every 30 minutes, with the page automatically refreshed every 10 minutes)

About weather observations | Map of weather stations | Latest weather observations for NSW | Other Formats
Station Details ID: 046129 Name: WHITE CLIFFS AWS Lat: -30.85 Lon: 143.07 Height: 158.0 m
Data from the previous 72 hours. | See also: Recent months at White Cliffs AWS
Date/Time
EST
Temp
°C
App
Temp
°C
Dew
Point
Rel
Hum
%
Delta-T
°C
Wind Press
QNH
hPa
Press
MSL
hPa
Rain
since 9 am
mm
Dir
 
Spd
km/h
Gust
km/h
Spd
kts
Gust
kts
31/04:00pm 24.5 18.8 -0.6 19 11.4 WNW 19 22 10 12 1015.9 1015.9 0.0
31/03:30pm 24.2 18.5 -0.9 19 11.4 WNW 19 33 10 18 1016.2 - 0.0
31/03:00pm 24.4 21.2 0.7 21 11.1 N 7 17 4 9 1016.2 1016.2 0.0
31/02:30pm 24.1 19.7 0.4 21 11.0 N 13 20 7 11 1016.7 - 0.0
31/02:00pm 23.7 19.4 0.7 22 10.7 NNW 13 20 7 11 1017.2 1017.1 0.0
31/01:30pm 24.1 19.7 0.4 21 11.0 NW 13 20 7 11 1017.8 - 0.0
31/01:00pm 23.0 18.6 0.2 22 10.4 N 13 20 7 11 1018.2 1018.1 0.0
31/12:30pm 22.6 19.0 0.4 23 10.2 NNW 9 19 5 10 1018.7 - 0.0
31/12:00pm 22.2 17.5 0.7 24 9.9 NNW 15 28 8 15 1019.3 1019.2 0.0
31/11:30am 22.4 17.4 1.4 25 9.8 NNW 17 28 9 15 1019.8 - 0.0
31/11:00am 21.7 16.2 1.9 27 9.3 NNW 20 24 11 13 1020.2 1020.2 0.0
31/10:30am 21.2 16.3 2.0 28 9.0 N 17 24 9 13 1020.5 - 0.0
31/10:00am 20.2 15.3 2.1 30 8.4 N 17 20 9 11 1020.7 1020.7 0.0
31/09:30am 18.9 14.0 1.9 32 7.8 N 17 22 9 12 1020.8 - 0.0
31/09:00am 18.3 14.1 1.8 33 7.5 N 13 17 7 9 1020.7 1020.7 0.0
31/08:30am 16.2 13.2 1.9 38 6.4 NNE 7 11 4 6 1020.7 - 0.0
31/08:00am 14.1 11.2 2.7 46 5.1 ENE 7 9 4 5 1020.7 1020.7 0.0
31/07:30am 11.4 8.1 2.2 53 4.0 ENE 9 11 5 6 1020.6 - 0.0
31/07:00am 9.4 5.6 2.0 60 3.1 NW 11 13 6 7 1020.2 1020.2 0.0
31/06:30am 9.4 5.6 2.0 60 3.1 NW 11 11 6 6 1019.9 - 0.0
31/06:00am 9.8 6.1 2.2 59 3.2 NW 11 13 6 7 1019.7 1019.7 0.0
31/05:30am 9.9 6.6 2.5 60 3.2 NW 9 11 5 6 1019.5 - 0.0
31/05:00am 9.9 5.8 2.3 59 3.2 NW 13 13 7 7 1019.3 1019.2 0.0
31/04:30am 10.4 7.1 2.3 57 3.5 NW 9 11 5 6 1019.1 - 0.0
31/04:00am 10.6 6.8 1.9 55 3.7 WNW 11 11 6 6 1019.2 1019.1 0.0
31/03:30am 11.4 8.0 1.6 51 4.2 NW 9 13 5 7 1019.3 - 0.0
31/03:00am 12.3 10.7 2.2 50 4.4 NNW 0 13 0 7 1019.5 1019.5 0.0
31/02:30am 13.6 10.6 0.9 42 5.4 N 6 9 3 5 1019.6 - 0.0
31/02:00am 13.9 11.0 1.2 42 5.5 NNW 6 7 3 4 1019.7 1019.7 0.0
31/01:30am 12.9 10.8 1.9 47 4.8 NW 2 6 1 3 1020.0 - 0.0
31/01:00am 13.0 10.0 2.0 47 4.8 NNW 7 7 4 4 1020.2 1020.2 0.0
31/12:30am 12.4 9.6 2.0 49 4.5 NW 6 7 3 4 1020.2 - 0.0
31/12:00am 14.7 12.8 0.5 38 6.1 CALM 0 0 0 0 1020.4 1020.4 0.0
 
Date/Time
EST
Temp
°C
App
Temp
°C
Dew
Point
Rel
Hum
%
Delta-T
°C
Wind Press
QNH
hPa
Press
MSL
hPa
Rain
since 9 am
mm
Dir
 
Spd
km/h
Gust
km/h
Spd
kts
Gust
kts
30/11:30pm 14.7 12.8 0.5 38 6.1 CALM 0 0 0 0 1020.5 - 0.0
30/11:00pm 14.7 11.5 0.5 38 6.1 E 7 9 4 5 1020.8 1020.8 0.0
30/10:30pm 16.0 12.0 0.6 35 6.7 E 11 11 6 6 1020.9 - 0.0
30/10:00pm 16.6 13.0 0.3 33 7.1 E 9 13 5 7 1021.1 1021.1 0.0
30/09:30pm 16.6 13.0 0.3 33 7.1 ESE 9 11 5 6 1021.3 - 0.0
30/09:00pm 17.2 13.9 -0.1 31 7.5 E 7 9 4 5 1021.3 1021.3 0.0
30/08:30pm 17.8 14.2 0.5 31 7.6 E 9 9 5 5 1021.2 - 0.0
30/08:00pm 18.1 14.9 0.7 31 7.7 E 7 7 4 4 1021.2 1021.2 0.0
30/07:30pm 18.0 15.0 0.6 31 7.7 E 6 7 3 4 1020.8 - 0.0
30/07:00pm 18.0 14.5 1.5 33 7.4 E 9 11 5 6 1020.6 1020.6 0.0
30/06:30pm 19.8 16.7 1.3 29 8.4 E 7 9 4 5 1020.4 - 0.0
30/06:00pm 21.3 18.3 0.5 25 9.4 ESE 6 9 3 5 1020.4 1020.4 0.0
30/05:30pm 22.6 18.8 -0.8 21 10.5 S 9 13 5 7 1020.4 - 0.0
30/05:00pm 22.7 19.9 -0.7 21 10.5 SSE 4 15 2 8 1020.4 1020.4 0.0
30/04:30pm 22.9 18.8 0.1 22 10.4 S 11 15 6 8 1020.3 - 0.0
30/04:00pm 23.1 19.3 -0.4 21 10.6 E 9 13 5 7 1020.4 1020.4 0.0
30/03:30pm 23.3 20.5 -0.2 21 10.7 ESE 4 9 2 5 1020.6 - 0.0
30/03:00pm 23.2 18.8 0.3 22 10.5 S 13 17 7 9 1020.9 1020.9 0.0
30/02:30pm 23.3 19.7 0.4 22 10.6 E 9 20 5 11 1021.2 - 0.0
30/02:00pm 22.9 19.9 0.7 23 10.2 SW 6 11 3 6 1021.6 1021.6 0.0
30/01:30pm 22.9 19.9 0.7 23 10.3 NNE 6 13 3 7 1021.9 - 0.0
30/01:00pm 22.2 18.1 0.1 23 10.0 ESE 11 20 6 11 1022.4 1022.4 0.0
30/12:30pm 22.4 19.1 0.3 23 10.1 NE 7 15 4 8 1022.9 - 0.0
30/12:00pm 21.8 18.2 0.9 25 9.6 E 9 17 5 9 1023.5 1023.4 0.0
30/11:30am 21.8 19.7 1.5 26 9.4 NW 2 7 1 4 1024.0 - 0.0
30/11:00am 20.7 18.6 2.0 29 8.7 N 2 7 1 4 1024.5 1024.4 0.0
30/10:30am 19.9 17.9 2.3 31 8.2 WSW 2 7 1 4 1024.9 - 0.0
30/10:00am 19.0 17.1 2.8 34 7.5 NE 2 7 1 4 1025.1 1025.1 0.0
30/09:30am 18.0 15.2 2.3 35 7.2 E 6 9 3 5 1025.1 - 0.0
30/09:00am 16.9 14.3 3.2 40 6.3 ESE 6 9 3 5 1025.1 1025.1 0.0
30/08:30am 14.8 12.5 2.7 44 5.5 SE 4 7 2 4 1025.0 - 0.0
30/08:00am 13.3 11.7 2.5 48 4.8 CALM 0 0 0 0 1024.9 1024.9 0.0
30/07:30am 10.2 8.6 2.3 58 3.4 CALM 0 0 0 0 1024.6 - 0.0
30/07:00am 9.2 6.1 1.6 59 3.2 SE 7 11 4 6 1024.4 1024.3 0.0
30/06:30am 10.0 5.9 2.4 59 3.3 S 13 15 7 8 1024.0 - 0.0
30/06:00am 9.4 5.3 2.3 61 3.0 S 13 13 7 7 1023.7 1023.6 0.0
30/05:30am 10.0 6.3 2.4 59 3.3 S 11 13 6 7 1023.5 - 0.0
30/05:00am 10.4 6.6 2.0 56 3.6 S 11 13 6 7 1023.5 1023.4 0.0
30/04:30am 11.9 7.7 1.5 49 4.4 S 13 13 7 7 1023.5 - 0.0
30/04:00am 10.8 6.7 2.4 56 3.6 S 13 15 7 8 1023.5 1023.4 0.0
30/03:30am 10.5 6.4 2.4 57 3.5 SSW 13 15 7 8 1023.6 - 0.0
30/03:00am 11.0 6.9 2.3 55 3.7 SSW 13 15 7 8 1023.7 1023.6 0.0
30/02:30am 11.4 7.7 2.2 53 4.0 SSW 11 17 6 9 1023.9 - 0.0
30/02:00am 12.1 9.1 2.3 51 4.3 SSW 7 9 4 5 1024.0 1023.9 0.0
30/01:30am 12.2 8.8 1.8 49 4.5 S 9 11 5 6 1024.2 - 0.0
30/01:00am 12.7 11.0 2.0 48 4.6 CALM 0 6 0 3 1024.2 1024.1 0.0
30/12:30am 13.4 10.5 1.7 45 5.1 SSE 6 7 3 4 1024.2 - 0.0
30/12:00am 13.2 11.1 1.8 46 4.9 S 2 7 1 4 1024.3 1024.2 0.0
 
Date/Time
EST
Temp
°C
App
Temp
°C
Dew
Point
Rel
Hum
%
Delta-T
°C
Wind Press
QNH
hPa
Press
MSL
hPa
Rain
since 9 am
mm
Dir
 
Spd
km/h
Gust
km/h
Spd
kts
Gust
kts
29/11:30pm 14.1 10.7 2.0 44 5.3 S 9 11 5 6 1024.4 - 0.0
29/11:00pm 15.0 11.8 0.8 38 6.1 ESE 7 11 4 6 1024.4 1024.3 0.0
29/10:30pm 14.6 10.7 1.2 40 5.8 SSE 11 13 6 7 1024.5 - 0.0
29/10:00pm 15.6 11.0 1.3 38 6.3 SSE 15 17 8 9 1024.7 1024.6 0.0
29/09:30pm 15.7 10.7 1.1 37 6.4 SSE 17 19 9 10 1024.8 - 0.0
29/09:00pm 16.1 11.0 1.0 36 6.6 SSE 17 17 9 9 1024.6 1024.5 0.0
29/08:30pm 15.7 11.5 1.8 39 6.2 S 13 15 7 8 1024.6 - 0.0
29/08:00pm 16.7 12.4 1.2 35 6.8 SSE 13 13 7 7 1024.6 1024.5 0.0
29/07:30pm 16.9 13.4 1.4 35 6.9 SE 9 11 5 6 1024.6 - 0.0
29/07:00pm 18.1 14.2 1.2 32 7.5 SE 11 13 6 7 1024.3 1024.2 0.0
29/06:30pm 19.6 15.2 0.6 28 8.5 SE 13 17 7 9 1024.2 - 0.0
29/06:00pm 20.7 15.6 0.5 26 9.1 SE 17 24 9 13 1024.1 1024.0 0.0
29/05:30pm 21.7 16.2 0.8 25 9.6 SE 19 26 10 14 1024.1 - 0.0
29/05:00pm 22.1 16.5 1.2 25 9.6 SSE 20 26 11 14 1024.0 1023.9 0.0
29/04:30pm 22.2 17.0 0.1 23 10.0 ESE 17 22 9 12 1024.0 - 0.0
29/04:00pm 22.8 17.7 0.6 23 10.2 SSE 17 20 9 11 1024.2 1024.1 0.0
29/03:30pm 22.4 16.8 0.9 24 9.9 ESE 20 28 11 15 1024.4 - 0.0
29/03:00pm 22.5 17.5 1.5 25 9.8 ESE 17 22 9 12 1024.5 1024.4 0.0
29/02:30pm 21.6 16.2 1.3 26 9.4 ESE 19 26 10 14 1024.7 - 0.0
29/02:00pm 21.8 16.7 0.9 25 9.6 SSE 17 24 9 13 1025.1 1025.1 0.0
29/01:30pm 20.8 15.4 1.1 27 9.0 ESE 19 28 10 15 1025.5 - 0.0
29/01:00pm 20.3 15.6 1.2 28 8.7 ESE 15 20 8 11 1026.0 1026.0 0.0
29/12:30pm 20.7 15.4 2.0 29 8.7 SSE 19 28 10 15 1026.6 - 0.0
29/12:00pm 19.9 14.6 1.8 30 8.3 ESE 19 26 10 14 1027.0 1027.0 0.0
29/11:30am 19.3 14.8 2.2 32 7.9 SE 15 20 8 11 1027.4 - 0.0
29/11:00am 18.6 14.8 2.0 33 7.6 ESE 11 17 6 9 1027.7 1027.7 0.0
29/10:30am 18.1 14.9 2.8 36 7.1 E 9 15 5 8 1027.9 - 0.0
29/10:00am 17.4 13.9 3.3 39 6.5 E 11 15 6 8 1028.0 1028.0 0.0
29/09:30am 16.5 13.4 3.6 42 6.0 ESE 9 13 5 7 1028.2 - 0.0
29/09:00am 15.5 12.4 3.6 45 5.5 SE 9 11 5 6 1028.2 1028.2 0.0
29/08:30am 13.6 10.6 3.9 52 4.4 S 9 11 5 6 1028.2 - 0.0
29/08:00am 12.1 8.3 4.1 58 3.6 S 13 15 7 8 1027.9 1027.9 0.0
29/07:30am 9.6 5.4 3.8 67 2.6 S 15 17 8 9 1027.8 - 0.0
29/07:00am 7.8 3.5 3.3 73 1.9 S 15 15 8 8 1027.6 1027.6 0.0
29/06:30am 8.1 4.2 3.4 72 2.0 S 13 15 7 8 1027.1 - 0.0
29/06:00am 8.7 4.7 3.1 68 2.4 S 13 15 7 8 1026.7 1026.7 0.0
29/05:30am 9.1 5.2 3.3 67 2.5 S 13 13 7 7 1026.5 - 0.0
29/05:00am 9.3 5.0 3.3 66 2.6 S 15 15 8 8 1026.3 1026.3 0.0
29/04:30am 9.7 6.1 3.2 64 2.8 S 11 13 6 7 1026.1 - 0.0
29/04:00am 10.7 7.2 3.3 60 3.2 ESE 11 11 6 6 1026.0 1026.0 0.0
29/03:30am 10.8 7.3 3.4 60 3.3 ESE 11 11 6 6 1025.9 - 0.0
29/03:00am 10.3 7.1 2.9 60 3.2 ESE 9 11 5 6 1026.1 1026.1 0.0
29/02:30am 12.1 8.2 3.3 55 3.9 ESE 13 15 7 8 1026.1 - 0.0
29/02:00am 12.2 8.3 3.4 55 3.9 ESE 13 15 7 8 1026.4 1026.4 0.0
29/01:30am 10.9 7.3 3.0 58 3.5 ESE 11 13 6 7 1026.5 - 0.0
29/01:00am 12.0 8.1 3.3 55 3.9 ESE 13 13 7 7 1026.7 1026.7 0.0
29/12:30am 13.2 9.2 3.0 50 4.6 ESE 13 17 7 9 1026.9 - 0.0
29/12:00am 15.6 10.5 3.1 43 5.7 SE 19 24 10 13 1026.9 1026.9 0.0
 
Date/Time
EST
Temp
°C
App
Temp
°C
Dew
Point
Rel
Hum
%
Delta-T
°C
Wind Press
QNH
hPa
Press
MSL
hPa
Rain
since 9 am
mm
Dir
 
Spd
km/h
Gust
km/h
Spd
kts
Gust
kts
28/11:30pm 16.1 11.0 2.9 41 6.0 SE 19 24 10 13 1027.0 - 0.0
28/11:00pm 14.4 10.5 3.2 47 5.0 SSE 13 17 7 9 1027.0 1027.0 0.0
28/10:30pm 14.6 9.9 3.1 46 5.2 SSE 17 20 9 11 1027.0 - 0.0
28/10:00pm 15.0 10.3 3.2 45 5.3 SSE 17 19 9 10 1026.9 1026.9 0.0
28/09:30pm 15.3 10.6 3.1 44 5.6 SSE 17 19 9 10 1026.8 - 0.0
28/09:00pm 15.7 10.9 2.8 42 5.8 S 17 19 9 10 1026.6 1026.6 0.0
28/08:30pm 16.0 11.6 2.8 41 6.0 S 15 17 8 9 1026.5 - 0.0
28/08:00pm 16.1 12.0 2.5 40 6.1 S 13 15 7 8 1026.3 1026.3 0.0
28/07:30pm 16.8 12.3 2.4 38 6.6 SSE 15 17 8 9 1026.0 - 0.0
28/07:00pm 17.4 12.8 1.8 35 7.0 SSE 15 17 8 9 1025.8 1025.8 0.0
28/06:30pm 18.3 13.7 1.8 33 7.5 SSE 15 20 8 11 1025.7 - 0.0
28/06:00pm 19.5 13.9 1.0 29 8.3 SSE 20 26 11 14 1025.5 1025.5 0.0
28/05:30pm 20.3 14.2 0.2 26 9.0 SE 22 30 12 16 1025.5 - 0.0
28/05:00pm 20.9 14.3 -0.4 24 9.4 SSE 24 30 13 16 1025.2 1025.2 0.0
28/04:30pm 21.1 14.9 -0.2 24 9.5 SE 22 32 12 17 1025.2 - 0.0

Other Formats:

Comma delimited format used in spreadsheet applications
http://www.bom.gov.au/fwo/IDN60801/IDN60801.95699.axf

JavaScript Object Notation format (JSON) in row-major order
http://www.bom.gov.au/fwo/IDN60801/IDN60801.95699.json